Tryon, NC (28782)

9:13 PM EST on December 07, 2016 (GMT -0500)
APRSWXNET | | Change Station

Elev 3205 ft 35.17 °N, 82.29 °W | Updated 4 hours ago

Overcast
Overcast
44.0 °F
Feels Like 38 °F
N
12.0
Wind Variable Wind from SW
Gusts 14.0 mph

Today
High -- | Low -- °F
--% Chance of Precip.
Yesterday
High -- | Low -- °F
Precip. -- in
Pressure 30.05 in
Visibility 10.0 miles
Clouds Overcast 800 ft
Windchill 38 °F
Dew Point 35.0 °F
Humidity 71%
Rainfall in
Snow Depth Not available.
7:24 AM 5:16 PM
First Quarter, 58% visible
METAR KGSP 080153Z 22005KT 10SM OVC008 10/08 A3005 RMK AO2 SLP175 T01000083
Pressure 30.05 in
Visibility 10.0 miles
Clouds Overcast 800 ft
Windchill 38 °F
Dew Point 35.0 °F
Humidity 71%
Rainfall in
Snow Depth Not available.
7:24 AM 5:16 PM
First Quarter, 58% visible
METAR KGSP 080153Z 22005KT 10SM OVC008 10/08 A3005 RMK AO2 SLP175 T01000083

10-Day Weather Forecast

Almanac

Astronomy

Dec. 07, 2016 Rise Set
Actual Time
Civil Twilight
Nautical Twilight
Astronomical Twilight
Moon
Length of Visible Light
Length of Day
Tomorrow will be .
, % of the Moon is Illuminated

Today's Extremes

State Highs State Lows

Community

WunderPhotos

Upload Photos

1,956,259 photos uploaded!

WunderBlog® & News

Nearby

Air Quality

  Air Quality AQ Index Pollutant
Not available.

Snow Depth

Station Depth Elevation

Earthquake Activity

City Distance Mag. Time & Date
Minimum magnitude displayed is 2.5.

Coastal Water Temperatures

Place Temperature

Stations

Nearby Weather Stations

Station Location Temp. Windchill Dew Point Humidity Wind Precip. Elev Updated Type
                   

Watches & Warnings

There are currently no watches in effect.